createdAt,value
2023-05-09T05:01:10.123Z,13.11
2023-05-09T05:03:37.269Z,13.14
2023-05-09T05:06:06.574Z,13.24
2023-05-09T05:08:35.658Z,13.34
2023-05-09T05:11:02.494Z,13.41
2023-05-09T05:13:30.282Z,13.48
2023-05-09T05:16:08.299Z,13.54
2023-05-09T05:18:44.266Z,13.65
2023-05-09T05:21:11.248Z,13.69
2023-05-09T05:23:44.826Z,13.75
2023-05-09T05:26:21.718Z,13.82
2023-05-09T05:29:00.642Z,13.88
2023-05-09T05:31:32.292Z,13.91
2023-05-09T05:33:59.866Z,13.96
2023-05-09T05:36:33.799Z,14.03
2023-05-09T05:39:13.866Z,14.11
2023-05-09T05:42:14.907Z,14.20
2023-05-09T05:44:45.794Z,14.28
2023-05-09T05:47:20.984Z,14.40
2023-05-09T05:49:59.837Z,14.51
2023-05-09T05:52:37.013Z,14.57
2023-05-09T05:55:11.681Z,14.69
2023-05-09T05:57:53.687Z,14.81
2023-05-09T06:00:31.177Z,14.96
2023-05-09T06:03:17.178Z,15.08
2023-05-09T06:05:52.641Z,15.14
2023-05-09T06:08:23.306Z,15.24
2023-05-09T06:10:53.419Z,15.44
2023-05-09T06:13:26.193Z,15.65
2023-05-09T06:16:07.836Z,15.93
2023-05-09T06:18:46.171Z,16.27
2023-05-09T06:21:16.407Z,16.56
2023-05-09T06:26:33.001Z,17.00
2023-05-09T06:29:09.264Z,17.15
2023-05-09T06:31:38.823Z,17.31
2023-05-09T06:34:11.776Z,17.44
2023-05-09T06:36:38.557Z,17.48
2023-05-09T06:39:09.256Z,17.48
2023-05-09T06:41:35.979Z,17.46
2023-05-09T06:44:03.264Z,17.41
2023-05-09T06:46:29.974Z,17.41
2023-05-09T06:48:57.267Z,17.31
2023-05-09T06:51:23.865Z,17.33
2023-05-09T06:53:51.332Z,17.49
2023-05-09T06:56:20.149Z,17.70
2023-05-09T06:58:47.622Z,17.95
2023-05-09T07:01:14.291Z,18.23
2023-05-09T07:03:42.824Z,18.40
2023-05-09T07:06:09.704Z,18.49
2023-05-09T07:08:36.929Z,18.65
2023-05-09T07:11:03.618Z,18.91
2023-05-09T07:13:30.793Z,19.17
2023-05-09T07:15:57.718Z,19.39
2023-05-09T07:18:24.858Z,19.55
2023-05-09T07:20:51.604Z,19.62
2023-05-09T07:23:18.900Z,19.81
2023-05-09T07:25:45.569Z,20.04
2023-05-09T07:28:13.069Z,20.08
2023-05-09T07:30:39.661Z,20.00
2023-05-09T07:33:08.081Z,19.98
2023-05-09T07:35:34.814Z,19.93
2023-05-09T07:38:02.185Z,19.93
2023-05-09T07:40:28.772Z,20.29
2023-05-09T07:42:57.085Z,20.46
2023-05-09T07:45:24.013Z,20.52
2023-05-09T07:47:51.475Z,20.54
2023-05-09T07:50:18.303Z,20.66
2023-05-09T07:52:45.715Z,20.67
2023-05-09T07:55:12.448Z,20.47
2023-05-09T07:57:40.278Z,20.16
2023-05-09T08:00:08.790Z,19.98
2023-05-09T08:02:40.375Z,19.85
2023-05-09T08:05:08.050Z,19.93
2023-05-09T08:07:35.994Z,19.97
2023-05-09T08:10:03.129Z,19.82
2023-05-09T08:12:30.391Z,19.76
2023-05-09T08:14:57.012Z,19.77
2023-05-09T08:17:24.198Z,19.87
2023-05-09T08:19:50.774Z,19.91
2023-05-09T08:22:22.383Z,20.01
2023-05-09T08:24:49.378Z,19.93
2023-05-09T08:27:19.003Z,19.87
2023-05-09T08:29:45.739Z,19.76
2023-05-09T08:32:17.128Z,19.85
2023-05-09T08:34:46.271Z,19.96
2023-05-09T08:37:15.245Z,20.07
2023-05-09T08:43:13.054Z,20.35
2023-05-09T08:46:12.539Z,20.28
2023-05-09T08:48:51.694Z,20.21
2023-05-09T08:51:21.669Z,20.27
2023-05-09T08:53:56.371Z,20.30
2023-05-09T08:56:26.675Z,20.22
2023-05-09T08:58:58.463Z,20.22
2023-05-09T09:01:26.928Z,20.28
2023-05-09T09:03:54.480Z,20.18
2023-05-09T09:06:23.655Z,20.13
2023-05-09T09:08:50.926Z,20.06
2023-05-09T09:11:18.921Z,19.99
2023-05-09T09:13:47.576Z,19.85
2023-05-09T09:16:20.863Z,19.75
2023-05-09T09:18:48.175Z,19.88
2023-05-09T09:21:19.181Z,19.89
2023-05-09T09:23:48.257Z,19.90
2023-05-09T09:26:15.590Z,19.80
2023-05-09T09:28:43.606Z,19.81
2023-05-09T09:31:30.203Z,19.79
2023-05-09T09:34:02.136Z,19.89
2023-05-09T09:36:36.724Z,19.98
2023-05-09T09:39:05.807Z,19.98
2023-05-09T09:41:39.487Z,19.99
2023-05-09T09:44:15.442Z,20.16
2023-05-09T09:46:53.451Z,20.35
2023-05-09T09:49:35.140Z,20.52
2023-05-09T09:52:08.343Z,20.48
2023-05-09T09:54:35.211Z,20.58
2023-05-09T09:57:03.079Z,20.69
2023-05-09T09:59:35.970Z,20.76
2023-05-09T10:04:56.663Z,20.94
2023-05-09T10:07:29.406Z,20.99
2023-05-09T10:10:08.761Z,21.21
2023-05-09T10:12:47.611Z,21.36
2023-05-09T10:15:18.986Z,21.55
2023-05-09T10:21:25.348Z,21.61
2023-05-09T10:23:58.501Z,21.64
2023-05-09T10:26:32.812Z,21.73
2023-05-09T10:29:15.073Z,21.78
2023-05-09T10:31:48.607Z,21.74
2023-05-09T10:34:19.536Z,21.56
2023-05-09T10:36:49.928Z,21.63
2023-05-09T10:39:28.208Z,21.61
2023-05-09T10:41:57.692Z,21.76
2023-05-09T10:44:25.593Z,21.82
2023-05-09T10:46:57.743Z,21.87
2023-05-09T10:49:29.640Z,21.87
2023-05-09T10:51:59.281Z,21.95
2023-05-09T10:54:35.759Z,21.92
2023-05-09T10:57:06.003Z,22.00
2023-05-09T10:59:38.646Z,21.97
2023-05-09T11:02:06.611Z,21.71
2023-05-09T11:04:33.374Z,21.65
2023-05-09T11:07:01.209Z,21.75
2023-05-09T11:09:37.917Z,21.80
2023-05-09T11:12:12.113Z,21.86
2023-05-09T11:14:46.731Z,21.82
2023-05-09T11:17:28.925Z,21.81
2023-05-09T11:20:00.903Z,21.78
2023-05-09T11:22:33.146Z,21.71
2023-05-09T11:25:07.363Z,21.88
2023-05-09T11:27:43.573Z,21.92
2023-05-09T11:30:20.883Z,21.88
2023-05-09T11:32:59.163Z,21.94
2023-05-09T11:35:28.601Z,22.16
2023-05-09T11:38:04.540Z,22.26
2023-05-09T11:40:32.440Z,22.14
2023-05-09T11:43:01.296Z,22.17
2023-05-09T11:45:32.346Z,22.25
2023-05-09T11:48:01.520Z,22.50
2023-05-09T11:50:28.556Z,22.70
2023-05-09T11:52:55.774Z,22.78
2023-05-09T11:55:22.800Z,23.08
2023-05-09T11:57:54.865Z,23.17
2023-05-09T12:00:23.910Z,23.07
2023-05-09T12:02:51.502Z,22.98
2023-05-09T12:05:20.220Z,22.93
2023-05-09T12:07:48.130Z,23.03
2023-05-09T12:10:25.429Z,23.24
2023-05-09T12:12:55.866Z,23.30
2023-05-09T12:15:23.219Z,23.11
2023-05-09T12:18:05.102Z,23.04
2023-05-09T12:20:47.220Z,23.10
2023-05-09T12:23:15.227Z,23.28
2023-05-09T12:26:07.080Z,23.51
2023-05-09T12:28:47.557Z,23.61
2023-05-09T12:31:15.228Z,23.74
2023-05-09T12:33:43.318Z,23.86
2023-05-09T12:36:12.657Z,23.84
2023-05-09T12:38:42.940Z,23.74
2023-05-09T12:41:22.310Z,23.82
2023-05-09T12:43:59.330Z,23.58
2023-05-09T12:46:26.174Z,23.47
2023-05-09T12:48:55.728Z,23.44
2023-05-09T12:51:23.579Z,23.53
2023-05-09T12:53:51.363Z,23.51
2023-05-09T12:56:20.430Z,23.31
2023-05-09T12:58:52.645Z,23.57
2023-05-09T13:01:21.369Z,23.71
2023-05-09T13:04:06.242Z,23.87
2023-05-09T13:06:34.743Z,23.65
2023-05-09T13:09:06.061Z,23.64
2023-05-09T13:11:33.252Z,23.39
2023-05-09T13:14:00.908Z,23.28
2023-05-09T13:16:27.670Z,23.42
2023-05-09T13:18:54.984Z,23.43
2023-05-09T13:21:21.812Z,23.58
2023-05-09T13:23:50.397Z,23.66
2023-05-09T13:26:17.253Z,23.74
2023-05-09T13:28:44.565Z,23.77
2023-05-09T13:31:11.461Z,23.79
2023-05-09T13:33:39.064Z,23.92
2023-05-09T13:36:06.645Z,24.15
2023-05-09T13:38:37.637Z,24.15
2023-05-09T13:41:04.793Z,24.25
2023-05-09T13:43:32.269Z,24.03
2023-05-09T13:45:58.952Z,23.87
2023-05-09T13:48:27.019Z,23.75
2023-05-09T13:50:54.057Z,23.66
2023-05-09T13:53:21.135Z,23.62
2023-05-09T13:55:48.485Z,23.76
2023-05-09T13:58:16.016Z,23.87
2023-05-09T14:00:43.029Z,23.84
2023-05-09T14:03:10.460Z,23.85
2023-05-09T14:05:37.352Z,23.79
2023-05-09T14:08:06.620Z,23.73
2023-05-09T14:10:33.216Z,23.71
2023-05-09T14:13:00.439Z,23.66
2023-05-09T14:15:27.414Z,23.74
2023-05-09T14:17:54.889Z,23.74
2023-05-09T14:20:34.740Z,23.54
2023-05-09T14:23:02.402Z,23.28
2023-05-09T14:25:29.451Z,23.14
2023-05-09T14:27:56.608Z,22.93
2023-05-09T14:30:25.079Z,22.94
2023-05-09T14:32:52.576Z,22.98
2023-05-09T14:35:19.289Z,22.83
2023-05-09T14:37:48.549Z,22.85
2023-05-09T14:40:16.161Z,22.97
2023-05-09T14:42:44.600Z,23.00
2023-05-09T14:45:12.764Z,22.94
2023-05-09T14:47:42.714Z,22.74
2023-05-09T14:50:15.926Z,22.59
2023-05-09T14:52:45.594Z,22.43
2023-05-09T14:55:12.857Z,22.41
2023-05-09T14:57:41.785Z,22.56
2023-05-09T15:00:20.218Z,22.68
2023-05-09T15:03:00.418Z,22.61
2023-05-09T15:05:28.174Z,22.66
2023-05-09T15:07:55.754Z,22.48
2023-05-09T15:10:22.906Z,22.13
2023-05-09T15:12:50.328Z,21.94
2023-05-09T15:15:19.569Z,21.90
2023-05-09T15:17:47.313Z,21.88
2023-05-09T15:20:18.267Z,21.76
2023-05-09T15:22:48.191Z,21.75
2023-05-09T15:25:15.071Z,21.82
2023-05-09T15:27:43.225Z,21.72
2023-05-09T15:30:15.763Z,21.53
2023-05-09T15:32:43.449Z,21.45
2023-05-09T15:35:10.682Z,21.39
2023-05-09T15:37:38.865Z,21.40
2023-05-09T15:40:07.061Z,21.54
2023-05-09T15:42:48.798Z,21.59
2023-05-09T15:45:16.685Z,21.55
2023-05-09T15:47:45.268Z,21.38
2023-05-09T15:50:13.350Z,21.30
2023-05-09T15:52:41.094Z,21.33
2023-05-09T15:55:14.582Z,21.32
2023-05-09T15:57:43.469Z,21.24
2023-05-09T16:00:12.694Z,21.13
2023-05-09T16:02:43.065Z,21.15
2023-05-09T16:08:18.130Z,21.13
2023-05-09T16:13:30.975Z,21.02
2023-05-09T16:15:58.834Z,20.97
2023-05-09T16:18:26.119Z,20.89
2023-05-09T16:20:52.840Z,20.91
2023-05-09T16:23:24.932Z,20.86
2023-05-09T16:28:33.511Z,20.67
2023-05-09T16:31:13.398Z,20.63
2023-05-09T16:36:26.257Z,20.48
2023-05-09T16:41:39.018Z,20.39
2023-05-09T16:44:05.690Z,20.38
2023-05-09T16:46:32.831Z,20.21
2023-05-09T16:48:59.759Z,19.98
2023-05-09T16:51:27.648Z,19.90
2023-05-09T16:56:36.938Z,19.89
2023-05-09T16:59:04.223Z,19.82
2023-05-09T17:01:31.728Z,19.88
2023-05-09T17:03:58.465Z,19.87
2023-05-09T17:06:26.780Z,19.83
2023-05-09T17:08:53.827Z,19.80
2023-05-09T17:11:22.360Z,19.73
2023-05-09T17:13:48.988Z,19.64
2023-05-09T17:16:16.315Z,19.58
2023-05-09T17:18:46.383Z,19.52
2023-05-09T17:21:18.267Z,19.54
2023-05-09T17:23:46.727Z,19.48
2023-05-09T17:26:32.321Z,19.46
2023-05-09T17:29:40.682Z,19.44
2023-05-09T17:32:57.924Z,19.49
2023-05-09T17:35:55.765Z,19.45
2023-05-09T17:38:23.858Z,19.43
2023-05-09T17:41:30.611Z,19.35
2023-05-09T17:44:12.438Z,19.18
2023-05-09T17:47:02.778Z,19.12
2023-05-09T17:49:41.074Z,19.04
2023-05-09T17:52:17.113Z,19.01
2023-05-09T17:55:11.998Z,19.04
2023-05-09T17:57:43.512Z,18.98
2023-05-09T18:00:16.615Z,18.92
2023-05-09T18:02:46.932Z,18.83
2023-05-09T18:11:04.172Z,18.79
2023-05-09T18:13:34.785Z,18.71
2023-05-09T18:16:08.821Z,18.64
2023-05-09T18:21:42.190Z,18.55
2023-05-09T18:24:09.392Z,18.54
2023-05-09T18:26:40.142Z,18.53
2023-05-09T18:29:09.361Z,18.49
2023-05-09T18:31:53.232Z,18.43
2023-05-09T18:34:25.489Z,18.40
2023-05-09T18:37:03.751Z,18.36
2023-05-09T18:39:30.942Z,18.33
2023-05-09T18:41:58.449Z,18.29
2023-05-09T18:44:28.090Z,18.26
2023-05-09T18:47:00.592Z,18.22
2023-05-09T18:49:29.642Z,18.18
2023-05-09T18:52:09.554Z,18.16
2023-05-09T18:57:47.062Z,18.00
2023-05-09T19:00:17.063Z,17.92
2023-05-09T19:02:47.834Z,17.90
2023-05-09T19:05:36.056Z,17.83
2023-05-09T19:08:21.618Z,17.77
2023-05-09T19:11:05.275Z,17.69
2023-05-09T19:13:48.947Z,17.66
2023-05-09T19:17:13.951Z,17.59
2023-05-09T19:19:41.624Z,17.52
2023-05-09T19:22:37.312Z,17.51
2023-05-09T19:25:31.311Z,17.46
2023-05-09T19:28:01.733Z,17.34
2023-05-09T19:30:41.492Z,17.31
2023-05-09T19:33:09.133Z,17.26
2023-05-09T19:35:37.672Z,17.23
2023-05-09T19:38:05.567Z,17.20
2023-05-09T19:40:51.000Z,17.18
2023-05-09T19:43:40.519Z,17.14
2023-05-09T19:46:20.851Z,17.08
2023-05-09T19:49:05.625Z,17.09
2023-05-09T19:51:45.412Z,17.00
2023-05-09T19:54:46.512Z,16.89
2023-05-09T19:57:45.476Z,16.79
2023-05-09T20:00:27.751Z,16.78
2023-05-09T20:03:02.155Z,16.69
2023-05-09T20:05:40.247Z,16.61
2023-05-09T20:08:35.111Z,16.59
2023-05-09T20:11:17.425Z,16.59
2023-05-09T20:14:05.756Z,16.54
2023-05-09T20:16:32.757Z,16.51
2023-05-09T20:18:59.357Z,16.49
2023-05-09T20:21:27.956Z,16.52
2023-05-09T20:23:54.526Z,16.52
2023-05-09T20:26:23.879Z,16.53
2023-05-09T20:28:54.354Z,16.46
